createdAt,value
2023-04-22T00:02:27.062Z,99577.22
2023-04-22T00:05:10.742Z,99580.50
2023-04-22T00:07:48.864Z,99585.74
2023-04-22T00:10:35.718Z,99586.63
2023-04-22T00:13:36.992Z,99589.97
2023-04-22T00:17:02.345Z,99589.05
2023-04-22T00:19:44.090Z,99586.66
2023-04-22T00:22:31.571Z,99591.04
2023-04-22T00:25:08.429Z,99590.41
2023-04-22T00:28:09.189Z,99595.40
2023-04-22T00:31:27.132Z,99591.41
2023-04-22T00:34:09.845Z,99592.07
2023-04-22T00:36:46.937Z,99591.03
2023-04-22T00:39:26.511Z,99589.09
2023-04-22T00:42:19.163Z,99590.20
2023-04-22T00:45:07.284Z,99588.89
2023-04-22T00:48:21.304Z,99591.88
2023-04-22T00:54:34.748Z,99588.50
2023-04-22T00:57:41.784Z,99589.80
2023-04-22T01:00:18.601Z,99585.38
2023-04-22T01:02:58.516Z,99587.28
2023-04-22T01:05:42.726Z,99587.14
2023-04-22T01:08:25.805Z,99589.32
2023-04-22T01:11:15.727Z,99586.05
2023-04-22T01:13:58.183Z,99583.62
2023-04-22T01:20:00.480Z,99583.67
2023-04-22T01:22:52.547Z,99585.52
2023-04-22T01:25:28.921Z,99584.58
2023-04-22T01:28:06.382Z,99588.96
2023-04-22T01:31:00.700Z,99585.08
2023-04-22T01:34:01.722Z,99586.16
2023-04-22T01:37:01.884Z,99586.52
2023-04-22T01:39:47.042Z,99590.45
2023-04-22T01:42:48.736Z,99595.10
2023-04-22T01:45:31.490Z,99596.11
2023-04-22T01:48:03.584Z,99596.94
2023-04-22T01:51:27.157Z,99593.42
2023-04-22T01:54:14.226Z,99593.30
2023-04-22T01:56:51.571Z,99593.09
2023-04-22T01:59:49.980Z,99590.20
2023-04-22T02:02:26.323Z,99590.14
2023-04-22T02:05:44.925Z,99590.62
2023-04-22T02:08:31.257Z,99587.30
2023-04-22T02:11:39.169Z,99585.80
2023-04-22T02:14:14.881Z,99586.09
2023-04-22T02:16:47.535Z,99580.23
2023-04-22T02:20:02.290Z,99582.15
2023-04-22T02:22:50.167Z,99581.23
2023-04-22T02:25:28.898Z,99579.20
2023-04-22T02:28:02.960Z,99577.08
2023-04-22T02:30:40.177Z,99577.52
2023-04-22T02:33:16.363Z,99578.34
2023-04-22T02:35:51.306Z,99574.48
2023-04-22T02:38:25.226Z,99572.50
2023-04-22T02:41:22.557Z,99569.41
2023-04-22T02:44:23.815Z,99572.86
2023-04-22T02:48:13.932Z,99571.61
2023-04-22T02:50:52.098Z,99574.38
2023-04-22T02:53:48.876Z,99576.06
2023-04-22T02:56:48.241Z,99578.75
2023-04-22T02:59:40.658Z,99582.58
2023-04-22T03:02:18.405Z,99581.70
2023-04-22T03:05:32.928Z,99583.58
2023-04-22T03:08:33.363Z,99590.10
2023-04-22T03:11:06.022Z,99589.07
2023-04-22T03:13:49.566Z,99591.19
2023-04-22T03:16:22.942Z,99593.20
2023-04-22T03:18:58.319Z,99591.89
2023-04-22T03:22:09.183Z,99599.89
2023-04-22T03:24:45.061Z,99601.79
2023-04-22T03:27:45.199Z,99600.02
2023-04-22T03:30:38.031Z,99610.65
2023-04-22T03:34:20.096Z,99615.61
2023-04-22T03:37:07.194Z,99615.70
2023-04-22T03:39:58.082Z,99620.67
2023-04-22T03:43:37.358Z,99621.85
2023-04-22T03:46:23.666Z,99627.64
2023-04-22T03:50:44.657Z,99627.33
2023-04-22T03:54:08.792Z,99632.93
2023-04-22T03:57:53.487Z,99634.77
2023-04-22T04:00:45.923Z,99640.94
2023-04-22T04:03:31.617Z,99644.05
2023-04-22T04:06:08.461Z,99648.45
2023-04-22T04:09:05.995Z,99652.48
2023-04-22T04:12:38.495Z,99653.77
2023-04-22T04:15:21.489Z,99657.00
2023-04-22T04:17:58.686Z,99657.30
2023-04-22T04:21:05.232Z,99656.31
2023-04-22T04:23:53.212Z,99655.92
2023-04-22T04:27:03.420Z,99659.81
2023-04-22T04:29:47.116Z,99660.48
2023-04-22T04:33:18.216Z,99660.21
2023-04-22T04:36:22.372Z,99664.30
2023-04-22T04:52:44.265Z,99676.30
2023-04-22T04:56:04.028Z,99682.63
2023-04-22T04:58:44.140Z,99681.77
2023-04-22T05:01:58.938Z,99682.59
2023-04-22T05:04:50.883Z,99683.23
2023-04-22T05:07:44.244Z,99684.85
2023-04-22T05:10:27.549Z,99686.65
2023-04-22T05:17:44.600Z,99688.09
2023-04-22T05:20:32.598Z,99689.07
2023-04-22T05:23:26.717Z,99689.88
2023-04-22T05:26:49.229Z,99671.77
2023-04-22T05:41:55.987Z,99699.33
2023-04-22T05:48:19.883Z,99695.95
2023-04-22T05:52:00.547Z,99701.11
2023-04-22T05:55:37.889Z,99699.59
2023-04-22T06:06:40.042Z,99702.27
2023-04-22T06:10:18.089Z,99704.39
2023-04-22T06:13:43.892Z,99705.30
2023-04-22T06:17:06.646Z,99711.87
2023-04-22T06:20:04.530Z,99713.23
2023-04-22T06:23:13.824Z,99715.27
2023-04-22T06:26:18.391Z,99716.70
2023-04-22T06:32:38.600Z,99715.84
2023-04-22T06:43:20.651Z,99709.28
2023-04-22T06:53:35.340Z,99719.45
2023-04-22T06:57:51.834Z,99721.95
2023-04-22T07:01:58.982Z,99721.94
2023-04-22T07:05:20.269Z,99720.00
2023-04-22T07:09:02.003Z,99725.80
2023-04-22T07:23:22.905Z,99727.39
2023-04-22T07:26:21.634Z,99729.04
2023-04-22T07:29:29.394Z,99728.66
2023-04-22T07:32:51.743Z,99724.06
2023-04-22T07:36:30.542Z,99724.10
2023-04-22T07:40:23.698Z,99725.02
2023-04-22T07:43:51.902Z,99721.48
2023-04-22T07:47:02.350Z,99728.73
2023-04-22T07:50:29.579Z,99728.09
2023-04-22T07:53:12.580Z,99731.33
2023-04-22T07:56:09.268Z,99723.10
2023-04-22T08:03:40.223Z,99735.89
2023-04-22T08:07:42.901Z,99738.38
2023-04-22T08:13:47.624Z,99744.75
2023-04-22T08:20:39.474Z,99746.27
2023-04-22T08:24:02.311Z,99751.61
2023-04-22T08:28:00.313Z,99755.41
2023-04-22T08:31:10.625Z,99757.96
2023-04-22T08:37:13.963Z,99755.95
2023-04-22T08:44:26.687Z,99756.05
2023-04-22T08:47:27.069Z,99758.20
2023-04-22T08:59:08.912Z,99757.46
2023-04-22T09:09:15.175Z,99758.73
2023-04-22T09:12:36.286Z,99758.61
2023-04-22T09:16:11.225Z,99765.33
2023-04-22T09:29:15.583Z,99764.42
2023-04-22T09:36:48.333Z,99762.31
2023-04-22T09:40:19.793Z,99759.14
2023-04-22T09:43:09.532Z,99760.88
2023-04-22T09:50:13.223Z,99760.14
2023-04-22T09:53:32.155Z,99756.36
2023-04-22T09:56:56.565Z,99763.65
2023-04-22T09:59:41.639Z,99759.19
2023-04-22T10:02:22.360Z,99761.59
2023-04-22T10:05:40.212Z,99766.19
2023-04-22T10:08:30.952Z,99764.58
2023-04-22T10:11:27.568Z,99763.83
2023-04-22T10:15:13.198Z,99759.84
2023-04-22T10:18:12.021Z,99760.22
2023-04-22T10:21:20.202Z,99761.11
2023-04-22T10:24:16.614Z,99760.04
2023-04-22T10:27:27.578Z,99756.81
2023-04-22T10:30:59.554Z,99754.14
2023-04-22T10:33:46.674Z,99753.63
2023-04-22T10:36:25.129Z,99754.70
2023-04-22T10:40:01.201Z,99750.86
2023-04-22T10:43:27.842Z,99752.73
2023-04-22T10:46:05.172Z,99756.63
2023-04-22T10:49:55.029Z,99753.09
2023-04-22T10:52:48.054Z,99752.17
2023-04-22T10:55:27.570Z,99754.81
2023-04-22T10:58:34.632Z,99754.79
2023-04-22T11:01:33.961Z,99762.02
2023-04-22T11:05:08.263Z,99756.29
2023-04-22T11:07:47.509Z,99757.64
2023-04-22T11:11:43.767Z,99758.30
2023-04-22T11:14:36.923Z,99762.13
2023-04-22T11:17:58.423Z,99760.75
2023-04-22T11:21:29.085Z,99767.48
2023-04-22T11:24:27.886Z,99762.48
2023-04-22T11:27:27.396Z,99766.58
2023-04-22T11:33:50.460Z,99769.73
2023-04-22T11:36:58.068Z,99768.34
2023-04-22T11:40:29.358Z,99756.13
2023-04-22T11:43:08.271Z,99760.48
2023-04-22T11:46:02.580Z,99762.97
2023-04-22T11:49:17.736Z,99764.48
2023-04-22T11:52:21.180Z,99760.05
2023-04-22T12:04:12.983Z,99748.80
2023-04-22T12:08:05.232Z,99759.25
2023-04-22T12:10:51.959Z,99754.01
2023-04-22T12:13:42.404Z,99750.45
2023-04-22T12:16:46.782Z,99752.85
2023-04-22T12:19:26.586Z,99751.46
2023-04-22T12:22:33.695Z,99752.45
2023-04-22T12:25:17.943Z,99751.33
2023-04-22T12:28:22.889Z,99748.09
2023-04-22T12:31:47.601Z,99749.63
2023-04-22T12:34:41.457Z,99746.70
2023-04-22T12:38:07.365Z,99749.66
2023-04-22T12:41:22.511Z,99742.33
2023-04-22T12:48:20.484Z,99740.66
2023-04-22T12:51:31.716Z,99741.88
2023-04-22T12:54:10.388Z,99743.01
2023-04-22T12:56:54.697Z,99743.98
2023-04-22T13:00:20.959Z,99748.81
2023-04-22T13:03:17.531Z,99757.48
2023-04-22T13:05:53.121Z,99754.27
2023-04-22T13:09:26.292Z,99750.61
2023-04-22T13:13:19.048Z,99761.27
2023-04-22T13:16:40.924Z,99764.06
2023-04-22T13:19:19.562Z,99769.44
2023-04-22T13:23:03.092Z,99777.56
2023-04-22T13:32:47.891Z,99786.21
2023-04-22T13:35:24.775Z,99788.30
2023-04-22T13:38:54.310Z,99794.31
2023-04-22T13:49:58.209Z,99786.10
2023-04-22T13:53:26.969Z,99787.76
2023-04-22T13:56:32.866Z,99780.57
2023-04-22T13:59:42.402Z,99779.43
2023-04-22T20:53:44.283Z,100016.36
2023-04-22T20:56:51.261Z,100013.46
2023-04-22T20:59:23.184Z,100021.64
2023-04-22T21:02:01.184Z,100018.33
2023-04-22T21:04:35.266Z,100023.77
2023-04-22T21:07:12.667Z,100021.05
2023-04-22T21:09:58.841Z,100019.79
2023-04-22T21:12:32.418Z,100021.96
2023-04-22T21:15:04.786Z,100021.03
2023-04-22T21:21:35.864Z,100026.63
2023-04-22T21:24:23.280Z,100029.46
2023-04-22T21:26:58.029Z,100030.50
2023-04-22T21:29:27.512Z,100028.17
2023-04-22T21:35:09.250Z,100034.41
2023-04-22T21:37:43.377Z,100033.27
2023-04-22T21:40:21.137Z,100036.18
2023-04-22T21:42:56.614Z,100034.80
2023-04-22T21:45:31.531Z,100033.91
2023-04-22T21:48:12.762Z,100035.73
2023-04-22T21:50:52.825Z,100033.55
2023-04-22T21:53:28.352Z,100033.80
2023-04-22T21:56:05.007Z,100032.35
2023-04-22T21:58:41.657Z,100036.92
2023-04-22T22:01:25.150Z,100035.70
2023-04-22T22:04:06.677Z,100038.84
2023-04-22T22:07:01.985Z,100032.79
2023-04-22T22:10:06.319Z,100032.17
2023-04-22T22:13:10.704Z,100033.19
2023-04-22T22:15:46.878Z,100035.67
2023-04-22T22:18:24.333Z,100035.19
2023-04-22T22:21:08.554Z,100030.98
2023-04-22T22:23:39.827Z,100036.13
2023-04-22T22:26:36.734Z,100036.52
2023-04-22T22:29:14.713Z,100038.58
2023-04-22T22:31:52.089Z,100037.52
2023-04-22T22:35:44.934Z,100033.67
2023-04-22T22:38:18.779Z,100035.50
2023-04-22T22:40:55.533Z,100039.69
2023-04-22T22:43:39.889Z,100041.68
2023-04-22T22:46:18.648Z,100041.58
2023-04-22T22:48:54.627Z,100038.80
2023-04-22T22:51:22.966Z,100041.06
2023-04-22T22:53:55.414Z,100039.41
2023-04-22T22:56:24.620Z,100038.92
2023-04-22T22:59:29.889Z,100039.41
2023-04-22T23:04:58.833Z,100037.98
2023-04-22T23:07:32.660Z,100042.45
2023-04-22T23:10:08.391Z,100039.34
2023-04-22T23:12:51.483Z,100041.60
2023-04-22T23:15:28.763Z,100043.22
2023-04-22T23:17:59.228Z,100048.20
2023-04-22T23:20:38.558Z,100044.60
2023-04-22T23:23:11.287Z,100051.29
2023-04-22T23:25:41.996Z,100050.70
2023-04-22T23:28:19.468Z,100050.91
2023-04-22T23:30:57.172Z,100049.79
2023-04-22T23:33:30.267Z,100056.77
2023-04-22T23:36:08.868Z,100058.55
2023-04-22T23:39:09.401Z,100057.15
2023-04-22T23:41:42.007Z,100056.84
2023-04-22T23:44:16.290Z,100056.12
2023-04-22T23:46:56.319Z,100056.39
2023-04-22T23:49:28.185Z,100060.81
2023-04-22T23:52:01.765Z,100060.20
2023-04-22T23:54:36.506Z,100059.56
2023-04-22T23:57:07.774Z,100063.63
2023-04-22T23:59:39.452Z,100062.77
